DAL892 KSEA-CYVR
Flight info
| Callsign | DAL892 |
|---|---|
| Flight time | 0h 39m |
| Altitude | 14000 |
| Route | MONTN2 SEA DCT PAE GRIZZ9 |
| Aircraft | A20N/M-SDE2E3FGHIRWXY/LB1 |
Departure
| Time | 2026-05-07 03:21 |
|---|---|
| Airport | Seattle–Tacoma International Airport (KSEA) |
Arrival
| Time | 2026-05-07 04:00 |
|---|---|
| Airport | Vancouver International Airport (CYVR) |
| Time | Latitude | Longitude | Altitude | Speed | Heading |
|---|---|---|---|---|---|
| 2026-05-07 03:08 | 47.46413 | -122.30465 | 393 ft | 0 kts | 183° |
| 2026-05-07 03:13 | 47.46400 | -122.30466 | 393 ft | 3 kts | 183° |
| 2026-05-07 03:14 | 47.46381 | -122.30477 | 393 ft | 3 kts | 218° |
| 2026-05-07 03:14 | 47.46373 | -122.30506 | 393 ft | 3 kts | 265° |
| 2026-05-07 03:14 | 47.46373 | -122.30520 | 393 ft | 0 kts | 267° |
| 2026-05-07 03:16 | 47.46373 | -122.30527 | 393 ft | 2 kts | 267° |
| 2026-05-07 03:17 | 47.46374 | -122.30561 | 393 ft | 5 kts | 274° |
| 2026-05-07 03:17 | 47.46374 | -122.30625 | 393 ft | 8 kts | 271° |
| 2026-05-07 03:17 | 47.46374 | -122.30712 | 393 ft | 8 kts | 247° |
| 2026-05-07 03:17 | 47.46325 | -122.30777 | 393 ft | 11 kts | 201° |
| 2026-05-07 03:18 | 47.46279 | -122.30784 | 393 ft | 0 kts | 181° |
| 2026-05-07 03:20 | 47.46278 | -122.30784 | 393 ft | 2 kts | 181° |
| 2026-05-07 03:20 | 47.46046 | -122.30784 | 393 ft | 69 kts | 181° |
| 2026-05-07 03:20 | 47.45358 | -122.30787 | 393 ft | 126 kts | 181° |
| 2026-05-07 03:21 | 47.44336 | -122.30805 | 521 ft | 157 kts | 183° |
| 2026-05-07 03:21 | 47.43321 | -122.30866 | 1291 ft | 142 kts | 185° |
| 2026-05-07 03:21 | 47.42276 | -122.30944 | 1748 ft | 155 kts | 183° |
| 2026-05-07 03:21 | 47.41212 | -122.30956 | 2381 ft | 143 kts | 182° |
| 2026-05-07 03:22 | 47.40270 | -122.30955 | 2547 ft | 133 kts | 182° |
| 2026-05-07 03:22 | 47.39310 | -122.30929 | 2660 ft | 143 kts | 180° |
| 2026-05-07 03:22 | 47.38315 | -122.30851 | 3267 ft | 144 kts | 180° |
| 2026-05-07 03:22 | 47.37287 | -122.30824 | 3665 ft | 155 kts | 181° |
| 2026-05-07 03:23 | 47.36163 | -122.30820 | 3684 ft | 165 kts | 182° |
| 2026-05-07 03:23 | 47.35017 | -122.30822 | 3619 ft | 164 kts | 181° |
| 2026-05-07 03:23 | 47.33936 | -122.30315 | 3315 ft | 177 kts | 136° |
| 2026-05-07 03:23 | 47.33396 | -122.28429 | 3238 ft | 231 kts | 99° |
| 2026-05-07 03:24 | 47.33362 | -122.25901 | 3213 ft | 262 kts | 88° |
| 2026-05-07 03:24 | 47.33829 | -122.23300 | 3212 ft | 267 kts | 61° |
| 2026-05-07 03:24 | 47.35093 | -122.21297 | 3250 ft | 272 kts | 31° |
| 2026-05-07 03:24 | 47.36890 | -122.20457 | 3736 ft | 275 kts | 0° |
| 2026-05-07 03:25 | 47.38778 | -122.20661 | 4833 ft | 271 kts | 351° |
| 2026-05-07 03:25 | 47.40636 | -122.21067 | 5894 ft | 268 kts | 349° |
| 2026-05-07 03:25 | 47.42470 | -122.21451 | 7015 ft | 265 kts | 350° |
| 2026-05-07 03:25 | 47.44324 | -122.21772 | 7873 ft | 271 kts | 351° |
| 2026-05-07 03:26 | 47.46211 | -122.22043 | 8774 ft | 274 kts | 351° |
| 2026-05-07 03:26 | 47.48119 | -122.22288 | 9679 ft | 278 kts | 350° |
| 2026-05-07 03:26 | 47.50050 | -122.22526 | 10487 ft | 282 kts | 350° |
| 2026-05-07 03:26 | 47.52080 | -122.22782 | 10848 ft | 304 kts | 350° |
| 2026-05-07 03:27 | 47.54265 | -122.23057 | 11123 ft | 325 kts | 350° |
| 2026-05-07 03:27 | 47.56549 | -122.23337 | 11801 ft | 332 kts | 350° |
| 2026-05-07 03:27 | 47.58870 | -122.23621 | 12555 ft | 337 kts | 350° |
| 2026-05-07 03:27 | 47.61212 | -122.23908 | 13379 ft | 339 kts | 350° |
| 2026-05-07 03:28 | 47.63582 | -122.24200 | 13873 ft | 343 kts | 349° |
| 2026-05-07 03:28 | 47.65955 | -122.24492 | 14011 ft | 341 kts | 349° |
| 2026-05-07 03:28 | 47.68319 | -122.24786 | 14035 ft | 342 kts | 349° |
| 2026-05-07 03:28 | 47.70689 | -122.25082 | 14035 ft | 342 kts | 349° |
| 2026-05-07 03:29 | 47.73057 | -122.25380 | 14034 ft | 342 kts | 349° |
| 2026-05-07 03:29 | 47.75426 | -122.25679 | 14035 ft | 342 kts | 349° |
| 2026-05-07 03:29 | 47.77795 | -122.25977 | 14038 ft | 342 kts | 349° |
| 2026-05-07 03:29 | 47.80160 | -122.26275 | 14038 ft | 341 kts | 349° |
| 2026-05-07 03:30 | 47.82537 | -122.26579 | 14043 ft | 345 kts | 350° |
| 2026-05-07 03:30 | 47.84926 | -122.26881 | 14043 ft | 344 kts | 350° |
| 2026-05-07 03:30 | 47.87312 | -122.27181 | 14044 ft | 344 kts | 350° |
| 2026-05-07 03:30 | 47.89699 | -122.27483 | 14045 ft | 344 kts | 350° |
| 2026-05-07 03:31 | 47.92084 | -122.27820 | 14043 ft | 343 kts | 347° |
| 2026-05-07 03:31 | 47.94416 | -122.28472 | 14044 ft | 341 kts | 344° |
| 2026-05-07 03:31 | 47.96746 | -122.29154 | 14043 ft | 341 kts | 344° |
| 2026-05-07 03:31 | 47.99075 | -122.29825 | 14044 ft | 341 kts | 344° |
| 2026-05-07 03:32 | 48.01406 | -122.30496 | 14044 ft | 341 kts | 344° |
| 2026-05-07 03:32 | 48.03737 | -122.31167 | 14044 ft | 341 kts | 344° |
| 2026-05-07 03:32 | 48.06040 | -122.31838 | 14045 ft | 343 kts | 345° |
| 2026-05-07 03:32 | 48.08384 | -122.32518 | 14045 ft | 342 kts | 345° |
| 2026-05-07 03:33 | 48.10717 | -122.33194 | 14046 ft | 340 kts | 345° |
| 2026-05-07 03:33 | 48.13033 | -122.33864 | 14045 ft | 338 kts | 345° |
| 2026-05-07 03:33 | 48.15346 | -122.34537 | 14032 ft | 339 kts | 345° |
| 2026-05-07 03:33 | 48.17674 | -122.35216 | 14042 ft | 341 kts | 345° |
| 2026-05-07 03:34 | 48.19997 | -122.35892 | 14045 ft | 339 kts | 345° |
| 2026-05-07 03:34 | 48.22317 | -122.36568 | 14046 ft | 339 kts | 345° |
| 2026-05-07 03:34 | 48.24633 | -122.37243 | 14046 ft | 340 kts | 345° |
| 2026-05-07 03:34 | 48.26951 | -122.37920 | 14010 ft | 338 kts | 345° |
| 2026-05-07 03:35 | 48.29249 | -122.38595 | 13762 ft | 336 kts | 345° |
| 2026-05-07 03:35 | 48.31539 | -122.39265 | 13288 ft | 334 kts | 345° |
| 2026-05-07 03:35 | 48.33819 | -122.39932 | 12758 ft | 333 kts | 345° |
| 2026-05-07 03:35 | 48.36085 | -122.40595 | 12237 ft | 331 kts | 345° |
| 2026-05-07 03:36 | 48.38338 | -122.41255 | 11728 ft | 329 kts | 345° |
| 2026-05-07 03:36 | 48.40550 | -122.41904 | 11239 ft | 327 kts | 345° |
| 2026-05-07 03:36 | 48.42780 | -122.42559 | 10749 ft | 325 kts | 345° |
| 2026-05-07 03:36 | 48.44991 | -122.43209 | 10374 ft | 320 kts | 345° |
| 2026-05-07 03:37 | 48.47132 | -122.43835 | 10253 ft | 307 kts | 345° |
| 2026-05-07 03:37 | 48.49180 | -122.44434 | 10125 ft | 294 kts | 345° |
| 2026-05-07 03:37 | 48.51139 | -122.45010 | 10051 ft | 280 kts | 345° |
| 2026-05-07 03:37 | 48.53028 | -122.45568 | 10034 ft | 278 kts | 345° |
| 2026-05-07 03:38 | 48.54936 | -122.46137 | 10031 ft | 280 kts | 345° |
| 2026-05-07 03:38 | 48.56841 | -122.46702 | 10028 ft | 279 kts | 345° |
| 2026-05-07 03:38 | 48.58749 | -122.47267 | 10027 ft | 279 kts | 345° |
| 2026-05-07 03:38 | 48.60649 | -122.47830 | 10031 ft | 279 kts | 345° |
| 2026-05-07 03:39 | 48.62556 | -122.48394 | 10022 ft | 278 kts | 345° |
| 2026-05-07 03:39 | 48.64454 | -122.48956 | 10021 ft | 278 kts | 345° |
| 2026-05-07 03:39 | 48.66357 | -122.49521 | 10018 ft | 279 kts | 345° |
| 2026-05-07 03:39 | 48.68258 | -122.50084 | 10017 ft | 278 kts | 345° |
| 2026-05-07 03:40 | 48.70135 | -122.50751 | 10012 ft | 275 kts | 336° |
| 2026-05-07 03:40 | 48.71804 | -122.52076 | 9733 ft | 269 kts | 320° |
| 2026-05-07 03:40 | 48.73154 | -122.54011 | 9182 ft | 268 kts | 311° |
| 2026-05-07 03:40 | 48.74431 | -122.56066 | 8556 ft | 268 kts | 312° |
| 2026-05-07 03:41 | 48.75710 | -122.58107 | 7983 ft | 266 kts | 312° |
| 2026-05-07 03:41 | 48.76987 | -122.60131 | 7432 ft | 265 kts | 312° |
| 2026-05-07 03:41 | 48.78264 | -122.62152 | 6834 ft | 266 kts | 312° |
| 2026-05-07 03:41 | 48.79546 | -122.64178 | 6447 ft | 266 kts | 313° |
| 2026-05-07 03:42 | 48.80821 | -122.66194 | 6064 ft | 264 kts | 312° |
| 2026-05-07 03:42 | 48.82087 | -122.68198 | 5690 ft | 262 kts | 312° |
| 2026-05-07 03:42 | 48.83351 | -122.70199 | 5299 ft | 262 kts | 312° |
| 2026-05-07 03:42 | 48.84610 | -122.72196 | 4932 ft | 262 kts | 312° |
| 2026-05-07 03:43 | 48.85865 | -122.74188 | 4523 ft | 261 kts | 312° |
| 2026-05-07 03:43 | 48.87121 | -122.76180 | 4238 ft | 257 kts | 312° |
| 2026-05-07 03:43 | 48.88372 | -122.78171 | 4138 ft | 265 kts | 312° |
| 2026-05-07 03:43 | 48.89644 | -122.80194 | 4049 ft | 262 kts | 312° |
| 2026-05-07 03:44 | 48.90892 | -122.82180 | 4014 ft | 260 kts | 312° |
| 2026-05-07 03:44 | 48.92145 | -122.84176 | 4014 ft | 262 kts | 311° |
| 2026-05-07 03:44 | 48.93399 | -122.86176 | 4014 ft | 261 kts | 311° |
| 2026-05-07 03:44 | 48.94652 | -122.88176 | 4015 ft | 261 kts | 311° |
| 2026-05-07 03:45 | 48.95904 | -122.90175 | 4016 ft | 261 kts | 311° |
| 2026-05-07 03:45 | 48.97142 | -122.92153 | 4008 ft | 261 kts | 311° |
| 2026-05-07 03:45 | 48.98387 | -122.94144 | 3974 ft | 256 kts | 311° |
| 2026-05-07 03:45 | 48.99594 | -122.96073 | 3896 ft | 247 kts | 311° |
| 2026-05-07 03:46 | 49.00757 | -122.97934 | 3702 ft | 241 kts | 311° |
| 2026-05-07 03:46 | 49.01905 | -122.99773 | 3327 ft | 240 kts | 311° |
| 2026-05-07 03:46 | 49.03045 | -123.01601 | 3209 ft | 241 kts | 311° |
| 2026-05-07 03:46 | 49.03828 | -123.02860 | 3359 ft | 242 kts | 311° |
| 2026-05-07 03:47 | 49.04981 | -123.04731 | 3352 ft | 239 kts | 308° |
| 2026-05-07 03:47 | 49.05897 | -123.06760 | 3255 ft | 228 kts | 295° |
| 2026-05-07 03:47 | 49.06524 | -123.08952 | 3096 ft | 224 kts | 293° |
| 2026-05-07 03:47 | 49.07131 | -123.11101 | 3003 ft | 223 kts | 294° |
| 2026-05-07 03:48 | 49.07762 | -123.13261 | 3009 ft | 225 kts | 294° |
| 2026-05-07 03:48 | 49.08401 | -123.15433 | 3006 ft | 223 kts | 294° |
| 2026-05-07 03:48 | 49.09030 | -123.17580 | 3004 ft | 222 kts | 294° |
| 2026-05-07 03:48 | 49.09584 | -123.19775 | 3007 ft | 223 kts | 285° |
| 2026-05-07 03:49 | 49.09871 | -123.22122 | 3007 ft | 226 kts | 279° |
| 2026-05-07 03:49 | 49.10127 | -123.24476 | 3005 ft | 225 kts | 280° |
| 2026-05-07 03:49 | 49.10390 | -123.26810 | 3003 ft | 219 kts | 280° |
| 2026-05-07 03:49 | 49.10639 | -123.29007 | 3003 ft | 202 kts | 280° |
| 2026-05-07 03:50 | 49.10869 | -123.31022 | 3013 ft | 183 kts | 281° |
| 2026-05-07 03:50 | 49.11075 | -123.32842 | 2998 ft | 164 kts | 281° |
| 2026-05-07 03:50 | 49.11257 | -123.34453 | 3001 ft | 149 kts | 281° |
| 2026-05-07 03:50 | 49.11441 | -123.36055 | 3003 ft | 153 kts | 281° |
| 2026-05-07 03:51 | 49.11621 | -123.37641 | 3002 ft | 150 kts | 281° |
| 2026-05-07 03:51 | 49.11800 | -123.39221 | 3004 ft | 152 kts | 281° |
| 2026-05-07 03:51 | 49.11978 | -123.40809 | 3006 ft | 150 kts | 281° |
| 2026-05-07 03:51 | 49.12154 | -123.42374 | 3011 ft | 151 kts | 281° |
| 2026-05-07 03:52 | 49.12332 | -123.43955 | 3009 ft | 151 kts | 281° |
| 2026-05-07 03:52 | 49.12505 | -123.45519 | 3007 ft | 149 kts | 281° |
| 2026-05-07 03:52 | 49.12683 | -123.47099 | 3009 ft | 152 kts | 281° |
| 2026-05-07 03:52 | 49.12875 | -123.48686 | 3002 ft | 152 kts | 289° |
| 2026-05-07 03:53 | 49.13538 | -123.49861 | 3012 ft | 151 kts | 336° |
| 2026-05-07 03:53 | 49.14579 | -123.49984 | 3012 ft | 154 kts | 5° |
| 2026-05-07 03:53 | 49.15630 | -123.49789 | 3006 ft | 151 kts | 5° |
| 2026-05-07 03:53 | 49.16677 | -123.49590 | 3010 ft | 153 kts | 5° |
| 2026-05-07 03:54 | 49.17695 | -123.49391 | 3010 ft | 140 kts | 6° |
| 2026-05-07 03:54 | 49.18649 | -123.49199 | 3006 ft | 139 kts | 6° |
| 2026-05-07 03:54 | 49.19609 | -123.49014 | 3011 ft | 139 kts | 5° |
| 2026-05-07 03:54 | 49.20571 | -123.48820 | 3007 ft | 140 kts | 5° |
| 2026-05-07 03:55 | 49.21526 | -123.48559 | 3001 ft | 141 kts | 21° |
| 2026-05-07 03:55 | 49.22179 | -123.47467 | 3021 ft | 145 kts | 64° |
| 2026-05-07 03:55 | 49.22577 | -123.46051 | 3015 ft | 145 kts | 65° |
| 2026-05-07 03:55 | 49.22970 | -123.44623 | 3014 ft | 145 kts | 65° |
| 2026-05-07 03:56 | 49.23359 | -123.43202 | 3006 ft | 145 kts | 68° |
| 2026-05-07 03:56 | 49.23322 | -123.41688 | 3031 ft | 148 kts | 108° |
| 2026-05-07 03:56 | 49.22976 | -123.40202 | 3015 ft | 148 kts | 108° |
| 2026-05-07 03:56 | 49.22702 | -123.38687 | 3013 ft | 147 kts | 102° |
| 2026-05-07 03:57 | 49.22475 | -123.37154 | 2871 ft | 148 kts | 100° |
| 2026-05-07 03:57 | 49.22307 | -123.35634 | 2605 ft | 143 kts | 97° |
| 2026-05-07 03:57 | 49.22145 | -123.34143 | 2290 ft | 141 kts | 100° |
| 2026-05-07 03:57 | 49.21980 | -123.32701 | 1985 ft | 138 kts | 100° |
| 2026-05-07 03:58 | 49.21813 | -123.31253 | 1663 ft | 135 kts | 101° |
| 2026-05-07 03:58 | 49.21654 | -123.29871 | 1382 ft | 131 kts | 101° |
| 2026-05-07 03:58 | 49.21494 | -123.28482 | 1179 ft | 132 kts | 101° |
| 2026-05-07 03:58 | 49.21335 | -123.27107 | 971 ft | 132 kts | 101° |
| 2026-05-07 03:59 | 49.21175 | -123.25716 | 786 ft | 132 kts | 101° |
| 2026-05-07 03:59 | 49.21016 | -123.24338 | 609 ft | 131 kts | 100° |
| 2026-05-07 03:59 | 49.20857 | -123.22960 | 427 ft | 132 kts | 100° |
| 2026-05-07 03:59 | 49.20700 | -123.21598 | 255 ft | 128 kts | 100° |
| 2026-05-07 04:00 | 49.20544 | -123.20247 | 92 ft | 129 kts | 100° |
| 2026-05-07 04:00 | 49.20388 | -123.18926 | 22 ft | 117 kts | 100° |
| 2026-05-07 04:00 | 49.20282 | -123.18005 | 15 ft | 59 kts | 100° |
| 2026-05-07 04:00 | 49.20214 | -123.17705 | 15 ft | 6 kts | 121° |
| 2026-05-07 04:01 | 49.20162 | -123.17590 | 16 ft | 16 kts | 130° |
| 2026-05-07 04:01 | 49.20095 | -123.17461 | 16 ft | 12 kts | 129° |
| 2026-05-07 04:01 | 49.20029 | -123.17367 | 18 ft | 13 kts | 163° |
| 2026-05-07 04:01 | 49.19995 | -123.17372 | 16 ft | 0 kts | 196° |
| 2026-05-07 04:02 | 49.19986 | -123.17378 | 16 ft | 3 kts | 208° |
| 2026-05-07 04:02 | 49.19983 | -123.17382 | 18 ft | 0 kts | 213° |
| 2026-05-07 04:02 | 49.19982 | -123.17382 | 18 ft | 1 kts | 213° |
| 2026-05-07 04:02 | 49.19944 | -123.17431 | 16 ft | 11 kts | 230° |
| 2026-05-07 04:03 | 49.19941 | -123.17438 | 18 ft | 1 kts | 235° |
| 2026-05-07 04:03 | 49.19925 | -123.17435 | 17 ft | 4 kts | 149° |
| 2026-05-07 04:03 | 49.19894 | -123.17387 | 18 ft | 9 kts | 131° |
| 2026-05-07 04:03 | 49.19849 | -123.17343 | 16 ft | 7 kts | 197° |
| 2026-05-07 04:04 | 49.19822 | -123.17356 | 18 ft | 1 kts | 197° |
| 2026-05-07 04:04 | 49.19828 | -123.17353 | 16 ft | 0 kts | 198° |